Time;durP1;ratioP1;P1;durP2;ratioP2;P2;SDS_P1;SDS_P2;PMS_P1;PMS_P2;Temp;Humidity;BMP_temperature;BMP_pressure;BME280_temperature;BME280_humidity;BME280_pressure;Samples;Min_cycle;Max_cycle;Signal;HPM_P1;HPM_P2
2021/01/05 05:01:50;;;;;;;82.18;28.15;;;;;;;2.15;87.17;99793.03;5436673;22;20088;-54
2021/01/05 05:04:39;;;;;;;77.85;27.08;;;;;;;2.15;86.87;99793.03;4987652;28;20042;-55
2021/01/05 05:07:22;;;;;;;77.97;27.85;;;;;;;2.06;87.40;99794.94;4987835;28;20064;-54
2021/01/05 05:09:54;;;;;;;72.22;27.13;;;;;;;2.01;87.40;99799.09;4989060;28;20041;-54
2021/01/05 05:12:29;;;;;;;78.30;26.67;;;;;;;2.04;87.69;99796.94;4987032;28;20473;-58
2021/01/05 05:15:08;;;;;;;76.07;28.77;;;;;;;2.22;87.01;99791.31;5000247;28;20041;-56
2021/01/05 05:17:58;;;;;;;71.25;25.98;;;;;;;2.15;87.59;99803.72;4985358;28;20042;-55
2021/01/05 05:21:02;;;;;;;71.80;26.73;;;;;;;2.01;87.07;99799.09;4964465;28;20045;-55
2021/01/05 05:24:03;;;;;;;80.53;26.27;;;;;;;2.18;87.04;99812.19;4967505;28;20035;-54
2021/01/05 05:26:37;;;;;;;88.57;30.17;;;;;;;2.24;86.74;99812.47;4964017;28;20093;-54
2021/01/05 05:29:22;;;;;;;73.97;25.77;;;;;;;2.42;86.64;99795.19;4968133;28;20057;-55
2021/01/05 05:31:50;;;;;;;70.53;27.27;;;;;;;2.10;86.79;99803.38;5001155;28;20037;-55
2021/01/05 05:34:35;;;;;;;72.20;26.00;;;;;;;2.27;86.20;99802.31;4964817;28;20042;-55
2021/01/05 05:37:15;;;;;;;73.03;26.05;;;;;;;2.12;87.50;99804.03;4969433;28;20053;-54
2021/01/05 05:39:56;;;;;;;72.55;27.08;;;;;;;2.15;86.76;99793.03;4995697;28;20092;-55
2021/01/05 05:42:41;;;;;;;65.68;25.00;;;;;;;2.15;87.14;99801.88;5012170;28;20045;-54
2021/01/05 05:45:14;;;;;;;62.38;25.10;;;;;;;2.10;87.57;99800.72;5007283;28;20057;-55
2021/01/05 05:47:49;;;;;;;66.85;25.98;;;;;;;2.08;87.17;99810.72;5004172;28;20133;-54
2021/01/05 05:51:02;;;;;;;64.75;24.23;;;;;;;2.24;86.31;99802.66;4998668;28;20054;-54
2021/01/05 05:53:58;;;;;;;55.83;23.17;;;;;;;2.15;86.86;99809.03;4954841;28;20049;-54
2021/01/05 05:56:39;;;;;;;74.28;24.52;;;;;;;1.87;87.70;99805.16;4961428;28;20042;-55
2021/01/05 05:59:05;;;;;;;62.03;24.77;;;;;;;2.12;86.83;99809.38;5018246;28;20051;-54
2021/01/05 06:01:36;;;;;;;69.13;23.70;;;;;;;2.09;87.29;99797.22;5010180;28;20064;-55
2021/01/05 06:04:03;;;;;;;65.47;24.20;;;;;;;2.02;87.04;99804.25;5011929;28;20044;-54
2021/01/05 06:06:31;;;;;;;63.55;25.40;;;;;;;2.13;86.64;99805.72;4997830;28;20327;-58
2021/01/05 06:08:57;;;;;;;64.25;26.83;;;;;;;2.16;86.81;99811.53;4987972;28;20038;-55
2021/01/05 06:11:23;;;;;;;62.83;23.55;;;;;;;2.28;86.41;99817.31;4988336;28;20513;-54
2021/01/05 06:13:49;;;;;;;66.45;23.85;;;;;;;2.21;86.65;99812.81;4989999;28;20269;-55
2021/01/05 06:16:15;;;;;;;67.40;23.77;;;;;;;2.22;86.89;99811.81;4989801;28;20041;-55
2021/01/05 06:18:41;;;;;;;58.15;22.55;;;;;;;2.27;86.59;99822.81;4991790;28;20041;-53
2021/01/05 06:21:07;;;;;;;56.13;21.73;;;;;;;2.27;86.04;99815.63;4991997;28;20124;-54
2021/01/05 06:23:33;;;;;;;64.63;22.80;;;;;;;1.97;87.44;99817.28;4991613;28;20045;-54
2021/01/05 06:25:58;;;;;;;67.68;23.42;;;;;;;2.03;87.53;99815.75;4991842;28;20099;-54
2021/01/05 06:28:24;;;;;;;56.55;21.55;;;;;;;2.05;87.43;99817.25;5008435;28;20049;-53
2021/01/05 06:30:49;;;;;;;65.57;24.38;;;;;;;2.06;86.55;99815.41;4991819;28;20474;-56
2021/01/05 06:33:15;;;;;;;54.90;21.65;;;;;;;1.86;87.59;99816.81;4990608;28;20374;-54
2021/01/05 06:35:41;;;;;;;57.30;24.35;;;;;;;2.00;87.34;99816.94;4989506;28;20048;-54
2021/01/05 06:38:07;;;;;;;54.85;20.77;;;;;;;2.06;87.48;99812.75;5007583;28;20042;-54
2021/01/05 06:40:34;;;;;;;60.88;22.33;;;;;;;2.04;87.18;99818.25;4990991;28;20506;-54
2021/01/05 06:43:01;;;;;;;65.40;22.90;;;;;;;2.11;86.77;99821.03;4989719;28;20145;-54
2021/01/05 06:45:31;;;;;;;56.38;22.45;;;;;;;2.09;86.62;99821.22;5008190;28;20068;-55
2021/01/05 06:47:57;;;;;;;60.10;20.25;;;;;;;1.93;88.04;99817.81;5016026;28;20030;-53
2021/01/05 06:50:26;;;;;;;58.92;21.75;;;;;;;1.95;87.94;99813.97;5012544;28;20526;-55
2021/01/05 06:52:52;;;;;;;57.83;21.45;;;;;;;2.11;87.37;99821.88;4997759;28;20037;-54
2021/01/05 06:55:18;;;;;;;62.25;22.70;;;;;;;1.85;87.96;99813.31;4999200;28;20034;-54
2021/01/05 06:57:45;;;;;;;57.15;20.17;;;;;;;1.99;87.58;99819.78;4993488;28;20084;-54
2021/01/05 07:00:24;;;;;;;52.00;19.85;;;;;;;1.93;87.65;99828.47;5013027;28;20518;-54
2021/01/05 07:02:51;;;;;;;43.55;19.15;;;;;;;2.07;87.07;99831.25;5000042;28;20433;-54
2021/01/05 07:05:17;;;;;;;51.70;20.80;;;;;;;1.93;86.81;99829.31;5023927;28;20037;-54
2021/01/05 07:07:43;;;;;;;47.15;19.48;;;;;;;1.99;86.44;99831.25;5002266;28;20533;-55
2021/01/05 07:10:10;;;;;;;54.10;20.85;;;;;;;1.96;87.36;99828.94;4999162;28;20050;-55
2021/01/05 07:12:36;;;;;;;51.63;20.85;;;;;;;2.06;86.95;99826.91;4991581;28;20046;-56
2021/01/05 07:15:06;;;;;;;49.95;20.75;;;;;;;2.00;86.76;99829.44;4991897;28;20034;-53
2021/01/05 07:17:32;;;;;;;54.53;21.40;;;;;;;1.79;86.88;99832.69;4987325;28;20077;-54
2021/01/05 07:19:58;;;;;;;45.10;20.08;;;;;;;2.13;86.57;99837.72;4990217;28;20506;-55
2021/01/05 07:22:23;;;;;;;47.25;19.42;;;;;;;2.01;86.33;99845.25;4990876;28;20057;-54
2021/01/05 07:24:49;;;;;;;48.50;19.25;;;;;;;1.86;86.75;99840.81;4991845;28;20034;-54
2021/01/05 07:27:15;;;;;;;47.08;18.95;;;;;;;1.98;86.58;99842.94;4989328;28;20038;-54
2021/01/05 07:29:41;;;;;;;43.33;18.35;;;;;;;2.11;85.64;99850.38;4988736;28;20483;-54
2021/01/05 07:32:08;;;;;;;43.50;18.73;;;;;;;2.10;86.11;99846.03;4986470;28;20042;-54
2021/01/05 07:34:37;;;;;;;44.25;18.35;;;;;;;2.07;85.43;99844.59;4988044;28;20048;-55
2021/01/05 07:37:10;;;;;;;48.50;20.10;;;;;;;1.99;85.75;99849.94;5004504;28;20053;-54
2021/01/05 07:39:37;;;;;;;46.10;18.60;;;;;;;1.89;85.63;99851.13;4988355;28;20392;-54
2021/01/05 07:42:31;;;;;;;44.45;18.52;;;;;;;2.11;85.50;99855.72;4988699;28;20053;-55
2021/01/05 07:44:59;;;;;;;35.55;15.80;;;;;;;2.13;85.54;99848.38;4986509;28;20083;-55
2021/01/05 07:47:32;;;;;;;39.22;17.88;;;;;;;2.16;85.10;99854.19;5006413;28;20567;-54
2021/01/05 07:49:58;;;;;;;37.78;17.02;;;;;;;2.08;84.84;99842.72;4981436;28;20049;-55
2021/01/05 07:52:39;;;;;;;42.30;18.10;;;;;;;2.10;85.65;99849.53;4988199;28;20041;-55
2021/01/05 07:55:13;;;;;;;40.47;17.02;;;;;;;2.22;84.77;99852.66;4989776;28;20041;-56
2021/01/05 07:57:40;;;;;;;40.30;18.10;;;;;;;2.06;85.04;99852.75;4993809;28;20046;-56
2021/01/05 08:00:08;;;;;;;43.45;18.45;;;;;;;2.17;85.49;99857.69;5004484;28;20125;-55
2021/01/05 08:02:40;;;;;;;43.25;18.42;;;;;;;1.97;86.21;99853.75;4988103;28;20125;-55
2021/01/05 08:05:06;;;;;;;39.90;15.05;;;;;;;1.86;86.87;99860.31;4987553;28;20149;-55
2021/01/05 08:07:32;;;;;;;39.75;16.73;;;;;;;1.87;86.07;99850.47;4988449;28;20038;-55
2021/01/05 08:09:58;;;;;;;39.08;18.83;;;;;;;1.94;86.29;99857.63;4988075;28;20037;-55
2021/01/05 08:12:23;;;;;;;39.78;15.38;;;;;;;2.05;85.88;99856.41;4988841;28;20042;-55
2021/01/05 08:14:49;;;;;;;40.60;15.75;;;;;;;1.85;86.13;99855.97;4987594;28;20419;-56
2021/01/05 08:17:15;;;;;;;35.20;15.20;;;;;;;1.95;86.35;99856.63;4989963;28;20057;-56
2021/01/05 08:19:45;;;;;;;37.55;15.13;;;;;;;1.96;85.05;99860.94;4999854;28;20046;-56
2021/01/05 08:22:12;;;;;;;41.72;15.52;;;;;;;1.99;85.48;99860.59;4989189;28;20042;-55
2021/01/05 08:24:38;;;;;;;38.25;16.02;;;;;;;1.90;84.95;99850.97;5000387;28;20037;-54
2021/01/05 08:27:09;;;;;;;35.83;16.08;;;;;;;1.95;85.32;99853.13;5004448;28;20072;-55
2021/01/05 08:29:35;;;;;;;41.42;15.75;;;;;;;1.87;85.39;99855.81;5007260;28;20514;-59
2021/01/05 08:32:02;;;;;;;38.47;15.30;;;;;;;1.99;85.67;99849.94;5004401;28;20041;-54
2021/01/05 08:34:27;;;;;;;40.70;16.70;;;;;;;1.98;85.70;99847.44;5006656;28;20041;-57
2021/01/05 08:36:53;;;;;;;47.63;16.13;;;;;;;2.04;84.79;99842.25;5006070;28;20048;-55
2021/01/05 08:39:19;;;;;;;42.40;16.02;;;;;;;2.14;84.85;99844.72;5008686;28;20068;-57
2021/01/05 08:41:46;;;;;;;37.40;15.90;;;;;;;2.21;84.41;99858.16;5008473;28;20116;-57
2021/01/05 08:44:12;;;;;;;35.83;14.88;;;;;;;2.01;85.00;99853.25;5008864;28;20040;-57
2021/01/05 08:46:38;;;;;;;34.58;15.02;;;;;;;2.02;84.32;99851.44;5008149;28;20546;-56
2021/01/05 08:49:05;;;;;;;33.78;14.73;;;;;;;2.07;84.39;99852.59;4978564;28;20165;-57
2021/01/05 08:51:32;;;;;;;36.60;15.57;;;;;;;2.22;83.60;99851.81;4998788;28;20431;-57
2021/01/05 08:53:58;;;;;;;35.80;15.27;;;;;;;2.29;83.92;99853.66;4976576;28;20042;-56
2021/01/05 08:56:26;;;;;;;32.05;13.77;;;;;;;2.13;83.89;99849.22;4986626;28;20106;-56
2021/01/05 08:58:53;;;;;;;34.25;15.02;;;;;;;2.05;84.29;99851.91;4986960;28;20038;-57
2021/01/05 09:01:20;;;;;;;33.88;14.30;;;;;;;2.17;83.34;99861.19;4983192;28;20042;-58
2021/01/05 09:03:46;;;;;;;36.30;15.45;;;;;;;2.27;83.86;99855.66;4985530;28;20092;-56
2021/01/05 09:06:13;;;;;;;34.35;16.20;;;;;;;2.35;83.36;99852.94;4986886;28;20034;-57
2021/01/05 09:08:40;;;;;;;38.92;16.50;;;;;;;2.22;83.45;99854.50;4987892;28;20034;-56
2021/01/05 09:11:08;;;;;;;32.05;13.73;;;;;;;2.30;83.14;99862.47;4986990;28;20261;-57
2021/01/05 09:13:36;;;;;;;34.30;15.38;;;;;;;2.42;82.46;99858.41;4988935;28;20042;-57
2021/01/05 09:16:03;;;;;;;35.63;14.95;;;;;;;2.26;83.05;99862.00;4984297;28;20415;-55
2021/01/05 09:18:28;;;;;;;34.13;15.60;;;;;;;2.32;82.92;99853.28;4984237;28;20037;-56
2021/01/05 09:20:56;;;;;;;37.63;16.23;;;;;;;2.14;84.26;99858.88;4987927;28;20053;-57
2021/01/05 09:23:23;;;;;;;40.30;15.57;;;;;;;2.33;83.64;99859.44;4988118;28;20037;-57
2021/01/05 09:25:56;;;;;;;33.72;14.68;;;;;;;2.43;82.62;99862.72;4987496;28;20045;-57
2021/01/05 09:28:27;;;;;;;29.17;15.38;;;;;;;2.52;83.02;99864.34;5001760;28;20038;-56
2021/01/05 09:30:55;;;;;;;30.48;13.82;;;;;;;2.53;81.65;99856.19;4986494;28;20038;-57
2021/01/05 09:33:23;;;;;;;28.50;13.88;;;;;;;2.49;81.95;99852.19;4984767;28;20041;-55
2021/01/05 09:35:49;;;;;;;30.05;13.23;;;;;;;2.56;81.80;99854.97;4989157;28;20033;-56
2021/01/05 09:38:16;;;;;;;28.50;13.13;;;;;;;2.36;80.78;99854.59;4986939;28;20042;-55
2021/01/05 09:40:42;;;;;;;33.90;16.38;;;;;;;2.29;80.70;99858.97;4987364;28;20391;-56
2021/01/05 09:43:11;;;;;;;38.13;18.17;;;;;;;2.19;81.86;99853.84;4987418;28;20069;-56
2021/01/05 09:45:38;;;;;;;33.10;13.20;;;;;;;2.15;81.81;99854.38;4985266;28;20049;-57
2021/01/05 09:48:15;;;;;;;46.97;24.88;;;;;;;2.35;80.66;99844.94;4987333;28;20042;-56
2021/01/05 09:50:44;;;;;;;33.42;16.85;;;;;;;2.43;81.22;99849.38;4988233;28;20088;-56
2021/01/05 09:53:11;;;;;;;32.00;14.00;;;;;;;2.52;81.54;99849.19;4985518;28;20755;-57
2021/01/05 09:55:37;;;;;;;34.78;17.63;;;;;;;2.36;82.25;99840.44;5002024;28;20041;-54
2021/01/05 09:58:03;;;;;;;41.08;19.00;;;;;;;2.14;83.19;99840.22;4988344;28;20050;-56
2021/01/05 10:00:31;;;;;;;38.63;16.90;;;;;;;2.38;82.33;99844.59;5004428;28;20053;-56
2021/01/05 10:02:58;;;;;;;38.03;18.48;;;;;;;2.29;82.16;99842.97;4987769;28;20040;-57
2021/01/05 10:05:23;;;;;;;40.78;16.90;;;;;;;2.01;83.47;99841.75;5003406;28;20046;-58
2021/01/05 10:07:49;;;;;;;37.60;15.90;;;;;;;2.15;83.35;99836.53;5003710;28;20514;-56
2021/01/05 10:10:24;;;;;;;41.95;17.45;;;;;;;2.03;84.79;99835.25;4988198;28;20121;-57
2021/01/05 10:12:51;;;;;;;36.20;17.15;;;;;;;2.14;83.90;99842.03;4986524;28;20121;-56
2021/01/05 10:15:21;;;;;;;36.17;16.48;;;;;;;2.18;83.29;99835.38;4983906;28;20052;-57
2021/01/05 10:17:48;;;;;;;39.15;17.02;;;;;;;2.25;83.98;99830.16;4985925;28;20052;-56
2021/01/05 10:20:20;;;;;;;36.03;16.48;;;;;;;2.21;83.96;99831.50;4984217;28;20121;-57
2021/01/05 10:22:47;;;;;;;28.65;14.00;;;;;;;2.41;82.94;99819.41;4986674;28;20735;-57
2021/01/05 10:25:12;;;;;;;33.88;14.55;;;;;;;2.38;82.46;99828.59;4986466;28;20465;-57
2021/01/05 10:27:38;;;;;;;39.33;15.65;;;;;;;2.37;82.72;99832.25;4989167;28;20042;-56
2021/01/05 10:30:06;;;;;;;37.28;16.88;;;;;;;2.44;83.04;99829.69;4991893;28;20038;-57
2021/01/05 10:32:32;;;;;;;29.23;13.38;;;;;;;2.26;82.88;99823.81;4991690;28;20056;-56
2021/01/05 10:34:58;;;;;;;37.35;16.73;;;;;;;2.47;82.61;99829.34;4989042;28;20486;-56
2021/01/05 10:37:23;;;;;;;39.13;15.02;;;;;;;2.24;83.50;99825.81;4989208;28;20521;-56
2021/01/05 10:39:49;;;;;;;30.63;14.32;;;;;;;2.35;82.48;99828.94;4989232;28;20137;-57
2021/01/05 10:42:15;;;;;;;34.03;15.20;;;;;;;2.37;83.54;99832.25;4991186;28;20332;-56
2021/01/05 10:44:40;;;;;;;31.35;14.23;;;;;;;2.26;82.56;99827.31;4988240;28;20467;-56
2021/01/05 10:47:07;;;;;;;35.30;16.02;;;;;;;2.33;82.83;99830.94;4991266;28;20561;-57
2021/01/05 10:49:33;;;;;;;32.05;15.18;;;;;;;2.42;82.43;99824.53;4986158;28;20499;-57
2021/01/05 10:52:01;;;;;;;33.38;14.73;;;;;;;2.47;83.12;99824.03;5009386;28;20037;-57
2021/01/05 10:54:28;;;;;;;33.17;14.13;;;;;;;2.55;82.39;99818.63;4990267;28;20057;-57
2021/01/05 10:57:05;;;;;;;32.53;16.10;;;;;;;2.30;82.60;99827.81;4989576;28;20057;-55
2021/01/05 10:59:31;;;;;;;34.40;14.55;;;;;;;2.55;81.98;99814.13;5007792;28;20099;-56
2021/01/05 11:01:59;;;;;;;31.35;15.38;;;;;;;2.52;81.66;99825.16;5008650;28;20048;-57
2021/01/05 11:04:26;;;;;;;28.80;14.38;;;;;;;2.59;81.76;99821.78;5003679;28;20081;-57
2021/01/05 11:07:01;;;;;;;26.00;12.52;;;;;;;2.31;81.86;99832.94;4987972;28;20045;-57
2021/01/05 11:09:28;;;;;;;20.38;11.13;;;;;;;2.16;81.98;99829.38;4984082;28;20589;-56
2021/01/05 11:12:21;;;;;;;30.10;12.00;;;;;;;2.35;82.15;99818.25;5005366;28;20067;-56
2021/01/05 11:14:47;;;;;;;21.70;10.57;;;;;;;2.06;82.61;99823.41;5002100;28;20057;-56
2021/01/05 11:17:13;;;;;;;26.08;11.10;;;;;;;2.21;83.06;99820.81;4988705;28;20056;-56
2021/01/05 11:19:41;;;;;;;22.73;10.70;;;;;;;2.42;81.66;99807.72;4985900;28;20045;-57
2021/01/05 11:22:09;;;;;;;18.77;9.50;;;;;;;2.46;80.27;99817.84;5005336;28;20042;-57
2021/01/05 11:24:37;;;;;;;23.70;11.00;;;;;;;2.48;81.19;99810.50;4990120;28;20456;-57
2021/01/05 11:27:05;;;;;;;22.65;11.15;;;;;;;2.50;80.19;99805.81;4988220;28;20034;-57
2021/01/05 11:29:31;;;;;;;23.50;10.85;;;;;;;2.21;81.70;99803.00;4990115;28;20088;-56
2021/01/05 11:32:09;;;;;;;19.67;10.65;;;;;;;2.48;80.31;99801.66;4989798;28;20037;-57
2021/01/05 11:34:36;;;;;;;14.95;8.20;;;;;;;2.57;78.55;99799.78;5006348;28;20042;-57
2021/01/05 11:37:07;;;;;;;21.15;9.85;;;;;;;2.60;79.21;99802.09;4990062;28;20046;-57
2021/01/05 11:39:32;;;;;;;19.20;10.23;;;;;;;2.71;80.09;99791.81;4986594;28;20514;-54
2021/01/05 11:42:00;;;;;;;19.10;9.80;;;;;;;2.74;78.21;99799.47;5005985;28;20033;-56
2021/01/05 11:44:26;;;;;;;21.52;9.18;;;;;;;2.72;78.76;99798.00;4989429;28;20034;-57
2021/01/05 11:46:52;;;;;;;18.55;9.60;;;;;;;2.64;79.03;99792.72;4989538;28;20041;-56
2021/01/05 11:49:18;;;;;;;19.60;9.75;;;;;;;2.38;80.17;99793.91;4990375;28;20041;-56
2021/01/05 11:51:44;;;;;;;23.23;11.43;;;;;;;2.13;82.13;99795.88;4990127;28;20042;-56
2021/01/05 11:54:10;;;;;;;24.88;11.13;;;;;;;2.31;81.78;99794.78;4990829;28;20934;-56
2021/01/05 11:56:36;;;;;;;23.17;10.40;;;;;;;1.90;82.73;99794.16;4991330;28;20507;-56
2021/01/05 11:59:03;;;;;;;25.77;12.27;;;;;;;1.96;83.26;99794.28;4987740;28;20049;-57
2021/01/05 12:01:34;;;;;;;27.50;15.02;;;;;;;2.01;83.06;99791.94;4985820;28;20037;-57
2021/01/05 12:04:00;;;;;;;23.88;12.52;;;;;;;2.13;82.00;99790.53;4999444;28;20034;-57
2021/01/05 12:06:25;;;;;;;18.92;11.48;;;;;;;2.05;82.53;99793.25;4996227;28;20384;-56
2021/01/05 12:08:51;;;;;;;27.90;13.38;;;;;;;2.00;82.88;99792.09;4993168;28;20041;-57
2021/01/05 12:11:20;;;;;;;24.60;13.07;;;;;;;1.97;82.78;99787.13;4990996;28;20042;-57
2021/01/05 12:13:46;;;;;;;22.10;12.55;;;;;;;2.09;82.60;99785.72;4987920;28;20046;-58
2021/01/05 12:16:23;;;;;;;39.72;20.15;;;;;;;1.98;82.81;99784.28;4988552;28;20168;-57
2021/01/05 12:18:50;;;;;;;26.88;13.82;;;;;;;1.77;83.83;99784.06;5009270;28;20100;-55
2021/01/05 12:21:28;;;;;;;34.05;19.55;;;;;;;1.70;84.77;99778.59;4989747;28;20057;-57
2021/01/05 12:23:54;;;;;;;25.80;13.73;;;;;;;1.49;84.64;99782.84;4988834;28;20087;-57
2021/01/05 12:26:22;;;;;;;40.70;22.67;;;;;;;1.48;84.66;99775.84;4989299;28;20492;-60
2021/01/05 12:28:47;;;;;;;42.03;23.63;;;;;;;1.72;84.80;99783.75;4964877;28;20351;-56
2021/01/05 12:31:13;;;;;;;26.35;14.57;;;;;;;1.63;84.88;99788.25;4990400;28;20033;-56
2021/01/05 12:33:39;;;;;;;43.97;27.02;;;;;;;1.79;84.63;99771.38;4989140;28;20048;-57
2021/01/05 12:36:07;;;;;;;44.08;22.83;;;;;;;1.90;83.79;99778.16;4987541;28;20045;-57
2021/01/05 12:38:34;;;;;;;32.92;16.63;;;;;;;2.01;83.22;99786.59;4984984;28;20104;-57
2021/01/05 12:41:01;;;;;;;42.75;24.70;;;;;;;1.90;83.18;99784.31;4985957;28;20042;-58
2021/01/05 12:43:27;;;;;;;44.13;23.35;;;;;;;1.89;84.21;99785.34;4983411;28;20048;-56
2021/01/05 12:45:52;;;;;;;46.80;26.83;;;;;;;1.69;84.08;99784.09;4985407;28;20042;-57
2021/01/05 12:48:18;;;;;;;37.00;17.73;;;;;;;1.69;84.12;99781.44;4983524;28;20038;-57
2021/01/05 12:50:47;;;;;;;32.72;14.90;;;;;;;1.51;85.51;99784.31;4989010;28;20080;-56
2021/01/05 12:53:13;;;;;;;31.05;15.70;;;;;;;1.77;83.70;99784.88;4987691;28;20041;-57
2021/01/05 12:55:39;;;;;;;37.55;18.58;;;;;;;1.73;84.38;99783.56;4983570;28;20529;-56
2021/01/05 12:58:04;;;;;;;35.83;18.95;;;;;;;1.84;83.79;99790.38;4989562;28;20534;-57
2021/01/05 13:00:30;;;;;;;31.60;14.52;;;;;;;1.72;84.05;99789.09;4985463;28;20120;-56
2021/01/05 13:02:57;;;;;;;40.28;22.38;;;;;;;1.80;84.06;99791.72;4986536;28;20037;-55
2021/01/05 13:05:23;;;;;;;30.02;14.45;;;;;;;1.80;83.79;99792.53;4986892;28;20503;-56
2021/01/05 13:07:49;;;;;;;34.85;17.35;;;;;;;1.62;84.74;99789.25;4984363;28;20037;-57
2021/01/05 13:10:15;;;;;;;29.25;14.90;;;;;;;1.70;83.88;99788.41;4987213;28;20513;-57
2021/01/05 13:12:44;;;;;;;32.55;14.60;;;;;;;1.75;84.50;99794.03;4988435;28;20045;-55
2021/01/05 13:15:11;;;;;;;29.27;14.75;;;;;;;1.72;84.73;99781.91;4983645;28;20052;-56
2021/01/05 13:17:41;;;;;;;32.30;16.73;;;;;;;1.77;84.71;99792.88;4986237;28;20042;-57
2021/01/05 13:20:10;;;;;;;32.33;17.00;;;;;;;2.09;84.58;99791.06;4999936;28;20038;-56
2021/01/05 13:22:36;;;;;;;31.13;17.58;;;;;;;1.93;83.63;99791.16;4983489;28;20064;-58
2021/01/05 13:25:01;;;;;;;32.28;15.10;;;;;;;1.59;85.22;99794.94;4983424;28;20050;-56
2021/01/05 13:27:27;;;;;;;25.15;12.77;;;;;;;1.59;84.22;99780.81;4984769;28;20037;-56
2021/01/05 13:29:52;;;;;;;26.50;13.10;;;;;;;1.56;84.75;99789.13;4998765;28;20038;-57
2021/01/05 13:32:18;;;;;;;32.88;15.20;;;;;;;1.70;84.80;99783.91;4989187;28;20037;-56
2021/01/05 13:34:44;;;;;;;27.17;12.32;;;;;;;1.71;84.30;99790.09;4986898;28;20045;-57
2021/01/05 13:37:13;;;;;;;23.08;12.23;;;;;;;1.82;83.86;99787.03;4988435;28;20112;-57
2021/01/05 13:39:39;;;;;;;25.13;12.18;;;;;;;1.75;83.54;99783.38;4983783;28;20042;-57
2021/01/05 13:42:08;;;;;;;34.92;19.90;;;;;;;1.60;85.10;99787.78;4988458;28;20084;-56
2021/01/05 13:44:34;;;;;;;29.38;14.18;;;;;;;1.63;84.74;99788.25;4988487;28;20553;-57
2021/01/05 13:47:02;;;;;;;22.88;13.07;;;;;;;1.83;83.90;99786.03;4988294;28;20033;-56
2021/01/05 13:49:31;;;;;;;24.40;12.98;;;;;;;2.01;82.53;99786.59;4988046;28;20038;-56
2021/01/05 13:52:04;;;;;;;21.88;11.57;;;;;;;1.62;83.84;99783.09;4986524;28;20077;-56
2021/01/05 13:54:44;;;;;;;26.27;13.20;;;;;;;1.88;83.21;99782.84;4975131;28;20049;-56
2021/01/05 13:57:29;;;;;;;26.30;12.18;;;;;;;1.73;83.71;99780.09;4948625;28;20116;-56
2021/01/05 14:00:13;;;;;;;23.67;12.48;;;;;;;1.67;84.41;99778.94;4979694;28;20037;-55
2021/01/05 14:02:55;;;;;;;25.67;12.27;;;;;;;1.76;84.15;99785.88;4931585;28;20678;-56
2021/01/05 14:05:28;;;;;;;24.85;14.85;;;;;;;1.91;83.58;99778.00;4963710;28;20042;-56
2021/01/05 14:08:08;;;;;;;26.83;13.18;;;;;;;1.87;84.41;99775.84;4989848;28;20583;-56
2021/01/05 14:10:50;;;;;;;27.88;14.32;;;;;;;1.81;84.66;99775.53;4952158;28;20042;-56
2021/01/05 14:13:22;;;;;;;24.35;12.00;;;;;;;1.59;84.82;99773.63;4973685;28;20049;-56
2021/01/05 14:15:59;;;;;;;28.27;12.63;;;;;;;1.63;84.52;99774.09;4960701;28;20048;-55
2021/01/05 14:18:52;;;;;;;25.65;13.65;;;;;;;1.76;83.63;99780.56;4962433;28;20137;-55
2021/01/05 14:21:43;;;;;;;19.83;10.93;;;;;;;1.77;83.72;99778.72;4979941;28;20556;-56
2021/01/05 14:24:31;;;;;;;27.30;13.35;;;;;;;1.74;83.95;99771.06;4942717;28;20042;-56
2021/01/05 14:27:23;;;;;;;28.02;14.13;;;;;;;1.60;83.77;99777.13;4949382;28;20069;-56
2021/01/05 14:30:09;;;;;;;26.83;12.43;;;;;;;1.57;84.48;99772.97;4935074;28;20403;-56
2021/01/05 14:32:51;;;;;;;28.70;16.17;;;;;;;1.53;84.64;99771.66;4932889;28;20115;-56
2021/01/05 14:35:57;;;;;;;28.52;14.40;;;;;;;1.68;84.60;99766.44;4957658;28;20236;-56
2021/01/05 14:38:56;;;;;;;30.58;16.45;;;;;;;1.80;84.40;99773.06;4921794;28;20458;-55
2021/01/05 14:41:46;;;;;;;33.75;18.40;;;;;;;1.69;84.55;99774.25;4937662;28;20426;-56
2021/01/05 14:44:38;;;;;;;25.65;13.52;;;;;;;1.56;84.74;99781.13;4919745;28;20150;-55
2021/01/05 14:47:21;;;;;;;28.92;17.95;;;;;;;1.43;85.01;99777.19;4962221;28;20393;-56
2021/01/05 14:50:05;;;;;;;27.98;13.95;;;;;;;1.46;86.17;99786.66;4928299;28;20087;-57
2021/01/05 14:52:48;;;;;;;26.63;12.88;;;;;;;1.56;85.61;99781.97;4930591;28;20405;-57
2021/01/05 14:55:23;;;;;;;24.45;14.07;;;;;;;1.51;85.52;99786.13;4942657;28;20038;-56
2021/01/05 14:57:58;;;;;;;26.02;14.18;;;;;;;1.42;85.83;99782.66;4945096;28;20046;-56
2021/01/05 15:00:24;;;;;;;22.60;12.52;;;;;;;1.43;86.35;99779.00;4923056;28;20066;-57
2021/01/05 15:02:50;;;;;;;28.60;12.98;;;;;;;1.54;85.42;99769.81;4984784;28;20577;-56
2021/01/05 15:05:15;;;;;;;34.05;11.75;;;;;;;1.45;85.47;99769.03;4995663;28;20140;-56
2021/01/05 15:07:41;;;;;;;24.42;10.68;;;;;;;1.54;85.12;99777.81;4990732;28;20041;-56
2021/01/05 15:10:07;;;;;;;21.13;11.82;;;;;;;1.66;84.04;99773.78;5000171;28;20071;-56
2021/01/05 15:12:33;;;;;;;26.02;12.82;;;;;;;1.76;84.19;99785.88;5004389;28;20041;-55
2021/01/05 15:15:00;;;;;;;23.25;11.85;;;;;;;1.72;84.01;99786.41;5004490;28;20092;-55
2021/01/05 15:17:26;;;;;;;30.30;12.82;;;;;;;1.58;84.07;99787.13;4988514;28;20050;-56
2021/01/05 15:19:51;;;;;;;31.60;13.15;;;;;;;1.55;85.15;99788.28;4987874;28;20053;-56
2021/01/05 15:22:17;;;;;;;19.15;11.02;;;;;;;1.56;85.37;99786.47;4988514;28;20095;-57
2021/01/05 15:24:42;;;;;;;23.95;12.60;;;;;;;1.59;84.86;99794.13;4988028;28;20060;-57
2021/01/05 15:27:08;;;;;;;20.13;11.15;;;;;;;1.60;85.62;99791.28;4987143;28;20046;-56
2021/01/05 15:29:33;;;;;;;24.50;13.48;;;;;;;1.56;85.87;99783.81;4983352;28;20050;-57
2021/01/05 15:31:59;;;;;;;25.50;13.15;;;;;;;1.88;84.76;99794.31;4987076;28;20038;-56
2021/01/05 15:34:27;;;;;;;23.55;12.40;;;;;;;1.88;83.31;99790.84;4984260;28;20034;-57
2021/01/05 15:36:54;;;;;;;23.48;13.02;;;;;;;1.95;83.80;99797.16;4970632;28;20132;-56
2021/01/05 15:39:26;;;;;;;23.58;11.95;;;;;;;1.89;83.57;99795.16;4971233;28;20049;-56
2021/01/05 15:41:54;;;;;;;22.23;11.88;;;;;;;1.72;84.02;99792.56;4968674;28;20042;-57
2021/01/05 15:44:22;;;;;;;25.27;12.32;;;;;;;1.77;83.63;99792.03;4969631;28;20518;-56
2021/01/05 15:46:52;;;;;;;21.80;11.65;;;;;;;1.92;83.11;99792.16;4967424;28;20038;-56
2021/01/05 15:49:17;;;;;;;20.38;11.02;;;;;;;1.74;84.00;99795.03;4987307;28;20165;-56
2021/01/05 15:51:43;;;;;;;20.15;10.38;;;;;;;1.81;83.80;99796.88;4987595;28;20105;-56
2021/01/05 15:54:10;;;;;;;24.35;11.00;;;;;;;1.62;84.09;99788.44;4987937;28;20529;-57
2021/01/05 15:56:36;;;;;;;22.85;11.40;;;;;;;1.78;83.63;99791.88;4990345;28;20034;-56
2021/01/05 15:59:03;;;;;;;24.73;11.80;;;;;;;1.90;83.12;99783.50;4990015;28;20064;-56
2021/01/05 16:01:32;;;;;;;26.25;12.02;;;;;;;1.81;83.30;99780.88;4986449;28;20127;-56
2021/01/05 16:03:58;;;;;;;23.10;11.50;;;;;;;1.81;83.64;99782.72;4989914;28;20041;-55
2021/01/05 16:06:40;;;;;;;27.55;10.90;;;;;;;1.67;83.97;99786.91;4989683;28;20112;-56
2021/01/05 16:09:07;;;;;;;21.08;10.82;;;;;;;1.65;84.28;99780.09;4987090;28;20515;-57
2021/01/05 16:11:35;;;;;;;21.63;11.60;;;;;;;1.63;84.11;99785.59;4993060;28;20200;-57
2021/01/05 16:14:03;;;;;;;21.15;11.25;;;;;;;1.59;84.82;99791.47;5004316;28;20037;-56
2021/01/05 16:16:31;;;;;;;18.83;9.90;;;;;;;1.56;84.89;99783.81;4984388;28;20048;-57
2021/01/05 16:18:59;;;;;;;22.35;10.93;;;;;;;1.74;84.57;99779.88;4987866;28;20034;-56
2021/01/05 16:21:27;;;;;;;19.67;10.65;;;;;;;1.92;83.54;99779.66;4988980;28;20510;-56
2021/01/05 16:23:53;;;;;;;23.05;12.52;;;;;;;1.89;83.63;99782.66;4987498;28;20042;-56
2021/01/05 16:26:21;;;;;;;20.08;10.00;;;;;;;1.87;83.25;99781.16;4988911;28;20049;-56
2021/01/05 16:28:47;;;;;;;19.30;10.48;;;;;;;2.00;83.94;99784.94;4989190;28;20120;-55
2021/01/05 16:31:13;;;;;;;21.08;9.80;;;;;;;2.10;83.10;99795.38;4988197;28;20138;-57
2021/01/05 16:33:40;;;;;;;21.00;11.00;;;;;;;1.85;84.58;99780.53;4987063;28;20116;-55
2021/01/05 16:36:10;;;;;;;23.92;11.75;;;;;;;1.90;84.52;99784.31;5005482;28;20081;-55
2021/01/05 16:38:37;;;;;;;23.85;12.23;;;;;;;2.04;83.75;99782.75;4993887;28;20133;-55